sensor_id;sensor_type;location;lat;lon;timestamp;temperature;humidity
19847;DHT22;10084;50.518;8.588;2022-08-19T00:01:28;22.40;61.90
19847;DHT22;10084;50.518;8.588;2022-08-19T00:03:56;22.50;61.90
19847;DHT22;10084;50.518;8.588;2022-08-19T00:06:21;22.50;62.00
19847;DHT22;10084;50.518;8.588;2022-08-19T00:08:47;22.40;62.00
19847;DHT22;10084;50.518;8.588;2022-08-19T00:11:13;22.40;62.00
19847;DHT22;10084;50.518;8.588;2022-08-19T00:13:39;22.40;62.10
19847;DHT22;10084;50.518;8.588;2022-08-19T00:16:06;22.40;62.10
19847;DHT22;10084;50.518;8.588;2022-08-19T00:18:32;22.40;62.20
19847;DHT22;10084;50.518;8.588;2022-08-19T00:20:58;22.40;62.20
19847;DHT22;10084;50.518;8.588;2022-08-19T00:23:25;22.30;62.20
19847;DHT22;10084;50.518;8.588;2022-08-19T00:25:51;22.30;62.30
19847;DHT22;10084;50.518;8.588;2022-08-19T00:28:18;22.30;62.30
19847;DHT22;10084;50.518;8.588;2022-08-19T00:30:44;22.30;62.40
19847;DHT22;10084;50.518;8.588;2022-08-19T00:33:10;22.30;62.40
19847;DHT22;10084;50.518;8.588;2022-08-19T00:35:36;22.30;62.50
19847;DHT22;10084;50.518;8.588;2022-08-19T00:38:04;22.30;62.50
19847;DHT22;10084;50.518;8.588;2022-08-19T00:40:32;22.20;62.60
19847;DHT22;10084;50.518;8.588;2022-08-19T00:42:57;22.20;62.70
19847;DHT22;10084;50.518;8.588;2022-08-19T00:45:28;22.20;62.80
19847;DHT22;10084;50.518;8.588;2022-08-19T00:47:57;22.10;62.90
19847;DHT22;10084;50.518;8.588;2022-08-19T00:50:24;22.10;63.00
19847;DHT22;10084;50.518;8.588;2022-08-19T00:52:50;22.10;63.10
19847;DHT22;10084;50.518;8.588;2022-08-19T00:55:21;22.00;63.40
19847;DHT22;10084;50.518;8.588;2022-08-19T00:57:53;22.00;63.70
19847;DHT22;10084;50.518;8.588;2022-08-19T01:00:21;22.00;63.70
19847;DHT22;10084;50.518;8.588;2022-08-19T01:02:48;22.00;63.60
19847;DHT22;10084;50.518;8.588;2022-08-19T01:05:19;22.00;63.60
19847;DHT22;10084;50.518;8.588;2022-08-19T01:07:47;22.00;63.70
19847;DHT22;10084;50.518;8.588;2022-08-19T01:10:21;22.00;63.80
19847;DHT22;10084;50.518;8.588;2022-08-19T01:12:49;21.90;63.90
19847;DHT22;10084;50.518;8.588;2022-08-19T01:15:20;21.90;64.10
19847;DHT22;10084;50.518;8.588;2022-08-19T01:17:47;21.90;64.20
19847;DHT22;10084;50.518;8.588;2022-08-19T01:20:17;21.90;64.30
19847;DHT22;10084;50.518;8.588;2022-08-19T01:22:58;21.90;64.40
19847;DHT22;10084;50.518;8.588;2022-08-19T01:25:31;21.90;64.60
19847;DHT22;10084;50.518;8.588;2022-08-19T01:27:58;21.90;64.70
19847;DHT22;10084;50.518;8.588;2022-08-19T01:30:28;21.80;64.70
19847;DHT22;10084;50.518;8.588;2022-08-19T01:32:55;21.80;65.00
19847;DHT22;10084;50.518;8.588;2022-08-19T01:35:22;21.80;65.20
19847;DHT22;10084;50.518;8.588;2022-08-19T01:37:52;21.80;66.20
19847;DHT22;10084;50.518;8.588;2022-08-19T01:40:20;21.80;67.50
19847;DHT22;10084;50.518;8.588;2022-08-19T01:42:50;21.70;68.60
19847;DHT22;10084;50.518;8.588;2022-08-19T01:45:17;21.70;71.80
19847;DHT22;10084;50.518;8.588;2022-08-19T01:47:43;21.60;75.80
19847;DHT22;10084;50.518;8.588;2022-08-19T01:50:10;21.50;71.10
19847;DHT22;10084;50.518;8.588;2022-08-19T01:52:38;21.50;69.30
19847;DHT22;10084;50.518;8.588;2022-08-19T01:55:06;21.40;68.90
19847;DHT22;10084;50.518;8.588;2022-08-19T01:57:32;21.40;68.90
19847;DHT22;10084;50.518;8.588;2022-08-19T01:59:58;21.30;69.10
19847;DHT22;10084;50.518;8.588;2022-08-19T02:02:25;21.20;69.70
19847;DHT22;10084;50.518;8.588;2022-08-19T02:04:50;21.20;71.00
19847;DHT22;10084;50.518;8.588;2022-08-19T02:07:19;21.10;73.60
19847;DHT22;10084;50.518;8.588;2022-08-19T02:09:47;21.00;61.50
19847;DHT22;10084;50.518;8.588;2022-08-19T02:12:14;21.00;62.20
19847;DHT22;10084;50.518;8.588;2022-08-19T02:14:40;20.90;62.90
19847;DHT22;10084;50.518;8.588;2022-08-19T02:17:06;20.90;62.30
19847;DHT22;10084;50.518;8.588;2022-08-19T02:19:32;20.80;62.40
19847;DHT22;10084;50.518;8.588;2022-08-19T02:21:58;20.80;62.50
19847;DHT22;10084;50.518;8.588;2022-08-19T02:24:25;20.70;62.60
19847;DHT22;10084;50.518;8.588;2022-08-19T02:26:51;20.70;62.70
19847;DHT22;10084;50.518;8.588;2022-08-19T02:29:17;20.60;62.70
19847;DHT22;10084;50.518;8.588;2022-08-19T02:31:43;20.60;62.80
19847;DHT22;10084;50.518;8.588;2022-08-19T02:34:08;20.50;62.90
19847;DHT22;10084;50.518;8.588;2022-08-19T02:36:34;20.50;63.00
19847;DHT22;10084;50.518;8.588;2022-08-19T02:39:00;20.40;63.10
19847;DHT22;10084;50.518;8.588;2022-08-19T02:41:28;20.40;63.20
19847;DHT22;10084;50.518;8.588;2022-08-19T02:43:56;20.30;63.20
19847;DHT22;10084;50.518;8.588;2022-08-19T02:46:28;20.30;63.30
19847;DHT22;10084;50.518;8.588;2022-08-19T02:48:57;20.30;63.50
19847;DHT22;10084;50.518;8.588;2022-08-19T02:51:29;20.30;63.50
19847;DHT22;10084;50.518;8.588;2022-08-19T02:53:55;20.20;63.60
19847;DHT22;10084;50.518;8.588;2022-08-19T02:56:22;20.20;63.70
19847;DHT22;10084;50.518;8.588;2022-08-19T02:58:50;20.20;63.80
19847;DHT22;10084;50.518;8.588;2022-08-19T03:01:24;20.20;63.80
19847;DHT22;10084;50.518;8.588;2022-08-19T03:03:50;20.20;63.90
19847;DHT22;10084;50.518;8.588;2022-08-19T03:06:16;20.20;64.00
19847;DHT22;10084;50.518;8.588;2022-08-19T03:08:44;20.20;64.00
19847;DHT22;10084;50.518;8.588;2022-08-19T03:11:20;20.20;64.10
19847;DHT22;10084;50.518;8.588;2022-08-19T03:13:47;20.20;64.10
19847;DHT22;10084;50.518;8.588;2022-08-19T03:16:14;20.20;64.20
19847;DHT22;10084;50.518;8.588;2022-08-19T03:18:40;20.20;64.30
19847;DHT22;10084;50.518;8.588;2022-08-19T03:21:06;20.20;64.40
19847;DHT22;10084;50.518;8.588;2022-08-19T03:23:32;20.30;64.40
19847;DHT22;10084;50.518;8.588;2022-08-19T03:25:58;20.30;64.40
19847;DHT22;10084;50.518;8.588;2022-08-19T03:28:24;20.30;64.40
19847;DHT22;10084;50.518;8.588;2022-08-19T03:31:18;20.30;64.40
19847;DHT22;10084;50.518;8.588;2022-08-19T03:33:44;20.30;64.50
19847;DHT22;10084;50.518;8.588;2022-08-19T03:36:13;20.30;64.60
19847;DHT22;10084;50.518;8.588;2022-08-19T03:38:45;20.30;64.60
19847;DHT22;10084;50.518;8.588;2022-08-19T03:41:15;20.30;64.60
19847;DHT22;10084;50.518;8.588;2022-08-19T03:43:42;20.30;64.60
19847;DHT22;10084;50.518;8.588;2022-08-19T03:46:11;20.30;64.60
19847;DHT22;10084;50.518;8.588;2022-08-19T03:48:39;20.30;64.70
19847;DHT22;10084;50.518;8.588;2022-08-19T03:51:05;20.20;64.70
19847;DHT22;10084;50.518;8.588;2022-08-19T03:53:33;20.20;64.80
19847;DHT22;10084;50.518;8.588;2022-08-19T03:55:59;20.20;64.90
19847;DHT22;10084;50.518;8.588;2022-08-19T03:58:26;20.20;64.90
19847;DHT22;10084;50.518;8.588;2022-08-19T04:00:55;20.10;65.00
19847;DHT22;10084;50.518;8.588;2022-08-19T04:03:22;20.10;65.00
19847;DHT22;10084;50.518;8.588;2022-08-19T04:05:48;20.10;65.10
19847;DHT22;10084;50.518;8.588;2022-08-19T04:08:14;20.10;65.10
19847;DHT22;10084;50.518;8.588;2022-08-19T04:10:47;20.10;65.20
19847;DHT22;10084;50.518;8.588;2022-08-19T04:13:14;20.10;65.20
19847;DHT22;10084;50.518;8.588;2022-08-19T04:15:41;20.10;65.30
19847;DHT22;10084;50.518;8.588;2022-08-19T04:18:09;20.10;65.30
19847;DHT22;10084;50.518;8.588;2022-08-19T04:20:46;20.10;65.40
19847;DHT22;10084;50.518;8.588;2022-08-19T04:23:13;20.10;65.50
19847;DHT22;10084;50.518;8.588;2022-08-19T04:25:41;20.10;65.50
19847;DHT22;10084;50.518;8.588;2022-08-19T04:28:09;20.10;65.50
19847;DHT22;10084;50.518;8.588;2022-08-19T04:30:40;20.10;65.60
19847;DHT22;10084;50.518;8.588;2022-08-19T04:33:07;20.10;65.60
19847;DHT22;10084;50.518;8.588;2022-08-19T04:35:42;20.10;65.70
19847;DHT22;10084;50.518;8.588;2022-08-19T04:38:08;20.10;65.70
19847;DHT22;10084;50.518;8.588;2022-08-19T04:40:38;20.10;65.70
19847;DHT22;10084;50.518;8.588;2022-08-19T04:43:23;20.10;65.80
19847;DHT22;10084;50.518;8.588;2022-08-19T04:45:48;20.20;65.80
19847;DHT22;10084;50.518;8.588;2022-08-19T04:48:14;20.20;65.90
19847;DHT22;10084;50.518;8.588;2022-08-19T04:50:41;20.20;66.00
19847;DHT22;10084;50.518;8.588;2022-08-19T04:53:08;20.20;66.70
19847;DHT22;10084;50.518;8.588;2022-08-19T04:55:34;20.30;66.00
19847;DHT22;10084;50.518;8.588;2022-08-19T04:58:01;20.30;66.10
19847;DHT22;10084;50.518;8.588;2022-08-19T05:00:27;20.30;66.10
19847;DHT22;10084;50.518;8.588;2022-08-19T05:02:53;20.30;66.10
19847;DHT22;10084;50.518;8.588;2022-08-19T05:05:19;20.40;66.20
19847;DHT22;10084;50.518;8.588;2022-08-19T05:07:45;20.40;66.20
19847;DHT22;10084;50.518;8.588;2022-08-19T05:10:11;20.40;66.20
19847;DHT22;10084;50.518;8.588;2022-08-19T05:12:38;20.50;66.30
19847;DHT22;10084;50.518;8.588;2022-08-19T05:15:06;20.50;66.30
19847;DHT22;10084;50.518;8.588;2022-08-19T05:17:34;20.60;66.30
19847;DHT22;10084;50.518;8.588;2022-08-19T05:20:00;20.60;67.10
19847;DHT22;10084;50.518;8.588;2022-08-19T05:22:46;20.70;66.40
19847;DHT22;10084;50.518;8.588;2022-08-19T05:25:17;20.80;66.40
19847;DHT22;10084;50.518;8.588;2022-08-19T05:27:44;20.90;66.50
19847;DHT22;10084;50.518;8.588;2022-08-19T05:30:11;21.10;66.50
19847;DHT22;10084;50.518;8.588;2022-08-19T05:32:37;21.20;66.50
19847;DHT22;10084;50.518;8.588;2022-08-19T05:35:04;21.30;66.50
19847;DHT22;10084;50.518;8.588;2022-08-19T05:37:30;21.50;66.50
19847;DHT22;10084;50.518;8.588;2022-08-19T05:39:55;21.60;66.40
19847;DHT22;10084;50.518;8.588;2022-08-19T05:42:22;21.80;66.40
19847;DHT22;10084;50.518;8.588;2022-08-19T05:44:49;21.90;66.30
19847;DHT22;10084;50.518;8.588;2022-08-19T05:47:16;22.20;66.40
19847;DHT22;10084;50.518;8.588;2022-08-19T05:49:42;22.50;66.50
19847;DHT22;10084;50.518;8.588;2022-08-19T05:52:12;22.90;66.80
19847;DHT22;10084;50.518;8.588;2022-08-19T05:54:39;23.40;66.90
19847;DHT22;10084;50.518;8.588;2022-08-19T05:57:09;23.90;67.50
19847;DHT22;10084;50.518;8.588;2022-08-19T05:59:35;24.50;66.70
19847;DHT22;10084;50.518;8.588;2022-08-19T06:02:02;25.10;66.50
19847;DHT22;10084;50.518;8.588;2022-08-19T06:04:28;25.70;66.30
19847;DHT22;10084;50.518;8.588;2022-08-19T06:06:54;26.40;66.00
19847;DHT22;10084;50.518;8.588;2022-08-19T06:09:22;27.10;65.80
19847;DHT22;10084;50.518;8.588;2022-08-19T06:11:51;27.70;65.30
19847;DHT22;10084;50.518;8.588;2022-08-19T06:14:25;28.30;64.80
19847;DHT22;10084;50.518;8.588;2022-08-19T06:16:51;28.70;64.30
19847;DHT22;10084;50.518;8.588;2022-08-19T06:19:21;29.20;64.10
19847;DHT22;10084;50.518;8.588;2022-08-19T06:21:51;29.60;63.60
19847;DHT22;10084;50.518;8.588;2022-08-19T06:24:20;29.90;62.90
19847;DHT22;10084;50.518;8.588;2022-08-19T06:31:45;30.70;64.20
19847;DHT22;10084;50.518;8.588;2022-08-19T06:34:12;31.10;65.10
19847;DHT22;10084;50.518;8.588;2022-08-19T06:36:41;31.30;64.60
19847;DHT22;10084;50.518;8.588;2022-08-19T06:39:15;31.30;60.50
19847;DHT22;10084;50.518;8.588;2022-08-19T06:41:44;31.40;59.90
19847;DHT22;10084;50.518;8.588;2022-08-19T06:44:17;31.40;59.50
19847;DHT22;10084;50.518;8.588;2022-08-19T06:46:43;31.30;59.10
19847;DHT22;10084;50.518;8.588;2022-08-19T06:49:10;31.20;58.80
19847;DHT22;10084;50.518;8.588;2022-08-19T06:51:43;31.10;58.60
19847;DHT22;10084;50.518;8.588;2022-08-19T06:54:10;31.20;58.50
19847;DHT22;10084;50.518;8.588;2022-08-19T06:56:36;31.30;58.40
19847;DHT22;10084;50.518;8.588;2022-08-19T06:59:12;31.40;59.90
19847;DHT22;10084;50.518;8.588;2022-08-19T07:01:49;31.50;62.00
19847;DHT22;10084;50.518;8.588;2022-08-19T07:04:24;31.60;59.30
19847;DHT22;10084;50.518;8.588;2022-08-19T07:06:55;31.70;57.00
19847;DHT22;10084;50.518;8.588;2022-08-19T07:09:22;31.90;56.20
19847;DHT22;10084;50.518;8.588;2022-08-19T07:11:49;32.00;56.50
19847;DHT22;10084;50.518;8.588;2022-08-19T07:14:18;32.20;56.00
19847;DHT22;10084;50.518;8.588;2022-08-19T07:16:45;32.40;55.60
19847;DHT22;10084;50.518;8.588;2022-08-19T07:19:12;32.40;55.00
19847;DHT22;10084;50.518;8.588;2022-08-19T07:21:38;32.50;54.60
19847;DHT22;10084;50.518;8.588;2022-08-19T07:24:04;32.50;54.20
19847;DHT22;10084;50.518;8.588;2022-08-19T07:26:33;32.50;53.60
19847;DHT22;10084;50.518;8.588;2022-08-19T07:29:02;32.40;53.20
19847;DHT22;10084;50.518;8.588;2022-08-19T07:31:28;32.40;52.80
19847;DHT22;10084;50.518;8.588;2022-08-19T07:33:56;32.30;52.50
19847;DHT22;10084;50.518;8.588;2022-08-19T07:36:25;32.30;52.90
19847;DHT22;10084;50.518;8.588;2022-08-19T07:38:54;32.20;51.80
19847;DHT22;10084;50.518;8.588;2022-08-19T07:41:25;32.20;51.60
19847;DHT22;10084;50.518;8.588;2022-08-19T07:43:51;32.10;51.30
19847;DHT22;10084;50.518;8.588;2022-08-19T07:46:18;32.00;51.80
19847;DHT22;10084;50.518;8.588;2022-08-19T07:48:46;31.90;50.90
19847;DHT22;10084;50.518;8.588;2022-08-19T07:51:16;31.80;50.80
19847;DHT22;10084;50.518;8.588;2022-08-19T07:53:42;31.60;51.50
19847;DHT22;10084;50.518;8.588;2022-08-19T07:56:10;31.60;50.70
19847;DHT22;10084;50.518;8.588;2022-08-19T07:58:40;31.60;50.60
19847;DHT22;10084;50.518;8.588;2022-08-19T08:01:07;31.60;50.40
19847;DHT22;10084;50.518;8.588;2022-08-19T08:03:33;31.60;50.30
19847;DHT22;10084;50.518;8.588;2022-08-19T08:06:18;31.70;50.20
19847;DHT22;10084;50.518;8.588;2022-08-19T08:09:04;31.80;50.10
19847;DHT22;10084;50.518;8.588;2022-08-19T08:11:40;31.90;49.80
19847;DHT22;10084;50.518;8.588;2022-08-19T08:14:08;31.90;49.70
19847;DHT22;10084;50.518;8.588;2022-08-19T08:16:36;31.90;49.60
19847;DHT22;10084;50.518;8.588;2022-08-19T08:19:04;31.80;49.40
19847;DHT22;10084;50.518;8.588;2022-08-19T08:21:31;31.80;49.40
19847;DHT22;10084;50.518;8.588;2022-08-19T08:23:57;31.80;49.40
19847;DHT22;10084;50.518;8.588;2022-08-19T08:26:23;31.80;49.10
19847;DHT22;10084;50.518;8.588;2022-08-19T08:28:51;31.60;48.90
19847;DHT22;10084;50.518;8.588;2022-08-19T08:31:17;31.40;48.90
19847;DHT22;10084;50.518;8.588;2022-08-19T08:33:46;31.30;49.10
19847;DHT22;10084;50.518;8.588;2022-08-19T08:36:13;31.30;49.30
19847;DHT22;10084;50.518;8.588;2022-08-19T08:38:40;31.40;49.10
19847;DHT22;10084;50.518;8.588;2022-08-19T08:43:48;31.50;48.70
19847;DHT22;10084;50.518;8.588;2022-08-19T08:46:47;31.40;48.60
19847;DHT22;10084;50.518;8.588;2022-08-19T08:49:41;31.40;59.90
19847;DHT22;10084;50.518;8.588;2022-08-19T08:52:28;30.90;48.40
19847;DHT22;10084;50.518;8.588;2022-08-19T08:54:57;30.50;48.60
19847;DHT22;10084;50.518;8.588;2022-08-19T09:00:06;30.40;48.90
19847;DHT22;10084;50.518;8.588;2022-08-19T09:02:33;30.40;49.70
19847;DHT22;10084;50.518;8.588;2022-08-19T09:04:59;30.50;49.00
19847;DHT22;10084;50.518;8.588;2022-08-19T09:10:35;30.70;48.80
19847;DHT22;10084;50.518;8.588;2022-08-19T09:13:27;30.70;48.60
19847;DHT22;10084;50.518;8.588;2022-08-19T09:16:14;30.80;48.80
19847;DHT22;10084;50.518;8.588;2022-08-19T09:18:55;30.90;48.70
19847;DHT22;10084;50.518;8.588;2022-08-19T09:21:23;31.60;48.80
19847;DHT22;10084;50.518;8.588;2022-08-19T09:23:50;31.50;48.30
19847;DHT22;10084;50.518;8.588;2022-08-19T09:26:19;31.80;48.20
19847;DHT22;10084;50.518;8.588;2022-08-19T09:28:47;32.10;48.10
19847;DHT22;10084;50.518;8.588;2022-08-19T09:31:16;32.40;47.90
19847;DHT22;10084;50.518;8.588;2022-08-19T09:33:42;32.70;47.50
19847;DHT22;10084;50.518;8.588;2022-08-19T09:36:12;33.00;47.10
19847;DHT22;10084;50.518;8.588;2022-08-19T09:38:39;33.00;46.60
19847;DHT22;10084;50.518;8.588;2022-08-19T09:41:14;32.90;46.50
19847;DHT22;10084;50.518;8.588;2022-08-19T09:43:42;32.80;46.40
19847;DHT22;10084;50.518;8.588;2022-08-19T09:46:09;32.70;46.60
19847;DHT22;10084;50.518;8.588;2022-08-19T09:48:36;32.80;46.60
19847;DHT22;10084;50.518;8.588;2022-08-19T09:51:10;32.80;46.40
19847;DHT22;10084;50.518;8.588;2022-08-19T09:53:37;32.80;46.20
19847;DHT22;10084;50.518;8.588;2022-08-19T09:56:05;32.80;46.10
19847;DHT22;10084;50.518;8.588;2022-08-19T09:58:32;32.70;46.00
19847;DHT22;10084;50.518;8.588;2022-08-19T10:01:00;32.70;46.00
19847;DHT22;10084;50.518;8.588;2022-08-19T10:03:28;32.70;45.90
19847;DHT22;10084;50.518;8.588;2022-08-19T10:05:55;32.80;45.90
19847;DHT22;10084;50.518;8.588;2022-08-19T10:08:27;32.90;45.70
19847;DHT22;10084;50.518;8.588;2022-08-19T10:10:54;33.10;45.50
19847;DHT22;10084;50.518;8.588;2022-08-19T10:13:23;33.30;45.30
19847;DHT22;10084;50.518;8.588;2022-08-19T10:15:51;33.40;45.00
19847;DHT22;10084;50.518;8.588;2022-08-19T10:18:19;33.60;45.00
19847;DHT22;10084;50.518;8.588;2022-08-19T10:20:49;33.70;45.70
19847;DHT22;10084;50.518;8.588;2022-08-19T10:23:16;33.90;44.50
19847;DHT22;10084;50.518;8.588;2022-08-19T10:25:43;34.00;44.30
19847;DHT22;10084;50.518;8.588;2022-08-19T10:28:09;34.00;44.10
19847;DHT22;10084;50.518;8.588;2022-08-19T10:30:38;34.00;43.90
19847;DHT22;10084;50.518;8.588;2022-08-19T10:33:05;34.00;43.80
19847;DHT22;10084;50.518;8.588;2022-08-19T10:35:31;34.10;43.80
19847;DHT22;10084;50.518;8.588;2022-08-19T10:37:57;34.10;43.60
19847;DHT22;10084;50.518;8.588;2022-08-19T10:40:25;34.20;43.50
19847;DHT22;10084;50.518;8.588;2022-08-19T10:42:52;34.30;43.30
19847;DHT22;10084;50.518;8.588;2022-08-19T10:45:19;34.10;43.00
19847;DHT22;10084;50.518;8.588;2022-08-19T10:47:47;34.10;42.90
19847;DHT22;10084;50.518;8.588;2022-08-19T10:50:13;33.90;42.80
19847;DHT22;10084;50.518;8.588;2022-08-19T10:53:03;33.70;42.70
19847;DHT22;10084;50.518;8.588;2022-08-19T10:55:29;33.40;42.70
19847;DHT22;10084;50.518;8.588;2022-08-19T10:58:16;33.20;42.70
19847;DHT22;10084;50.518;8.588;2022-08-19T11:00:42;32.90;42.70
19847;DHT22;10084;50.518;8.588;2022-08-19T11:03:09;32.60;42.90
19847;DHT22;10084;50.518;8.588;2022-08-19T11:05:35;32.50;43.10
19847;DHT22;10084;50.518;8.588;2022-08-19T11:08:03;32.50;43.10
19847;DHT22;10084;50.518;8.588;2022-08-19T11:10:28;32.60;43.00
19847;DHT22;10084;50.518;8.588;2022-08-19T11:12:54;32.60;42.80
19847;DHT22;10084;50.518;8.588;2022-08-19T11:15:20;32.60;42.60
19847;DHT22;10084;50.518;8.588;2022-08-19T11:17:46;32.60;42.50
19847;DHT22;10084;50.518;8.588;2022-08-19T11:20:13;32.40;42.40
19847;DHT22;10084;50.518;8.588;2022-08-19T11:22:40;32.30;42.50
19847;DHT22;10084;50.518;8.588;2022-08-19T11:25:07;32.10;42.50
19847;DHT22;10084;50.518;8.588;2022-08-19T11:27:33;32.00;42.50
19847;DHT22;10084;50.518;8.588;2022-08-19T11:29:59;32.00;42.60
19847;DHT22;10084;50.518;8.588;2022-08-19T11:32:26;32.10;42.60
19847;DHT22;10084;50.518;8.588;2022-08-19T11:34:52;32.30;42.70
19847;DHT22;10084;50.518;8.588;2022-08-19T11:37:18;32.50;42.40
19847;DHT22;10084;50.518;8.588;2022-08-19T11:39:44;32.60;42.10
19847;DHT22;10084;50.518;8.588;2022-08-19T11:42:09;32.60;41.80
19847;DHT22;10084;50.518;8.588;2022-08-19T11:45:04;32.50;41.60
19847;DHT22;10084;50.518;8.588;2022-08-19T11:47:31;32.40;41.60
19847;DHT22;10084;50.518;8.588;2022-08-19T11:49:57;32.50;41.60
19847;DHT22;10084;50.518;8.588;2022-08-19T11:52:22;32.60;41.60
19847;DHT22;10084;50.518;8.588;2022-08-19T11:54:48;32.70;41.50
19847;DHT22;10084;50.518;8.588;2022-08-19T11:57:14;32.90;41.40
19847;DHT22;10084;50.518;8.588;2022-08-19T11:59:47;32.90;41.20
19847;DHT22;10084;50.518;8.588;2022-08-19T12:02:13;33.00;41.10
19847;DHT22;10084;50.518;8.588;2022-08-19T12:04:40;33.00;41.00
19847;DHT22;10084;50.518;8.588;2022-08-19T12:07:06;32.90;40.80
19847;DHT22;10084;50.518;8.588;2022-08-19T12:09:32;32.70;40.70
19847;DHT22;10084;50.518;8.588;2022-08-19T12:12:00;32.60;40.80
19847;DHT22;10084;50.518;8.588;2022-08-19T12:14:27;32.40;40.80
19847;DHT22;10084;50.518;8.588;2022-08-19T12:16:55;32.40;41.00
19847;DHT22;10084;50.518;8.588;2022-08-19T12:19:21;32.40;41.10
19847;DHT22;10084;50.518;8.588;2022-08-19T12:21:47;32.40;41.00
19847;DHT22;10084;50.518;8.588;2022-08-19T12:24:13;32.40;40.90
19847;DHT22;10084;50.518;8.588;2022-08-19T12:26:39;32.30;40.80
19847;DHT22;10084;50.518;8.588;2022-08-19T12:29:05;32.10;40.70
19847;DHT22;10084;50.518;8.588;2022-08-19T12:31:32;32.00;40.60
19847;DHT22;10084;50.518;8.588;2022-08-19T12:33:58;31.90;40.70
19847;DHT22;10084;50.518;8.588;2022-08-19T12:36:24;31.70;40.70
19847;DHT22;10084;50.518;8.588;2022-08-19T12:38:51;31.60;40.80
19847;DHT22;10084;50.518;8.588;2022-08-19T12:41:18;31.60;40.90
19847;DHT22;10084;50.518;8.588;2022-08-19T12:43:44;31.70;40.80
19847;DHT22;10084;50.518;8.588;2022-08-19T12:46:11;31.80;40.70
19847;DHT22;10084;50.518;8.588;2022-08-19T12:48:38;31.80;40.50
19847;DHT22;10084;50.518;8.588;2022-08-19T12:51:10;31.70;40.40
19847;DHT22;10084;50.518;8.588;2022-08-19T12:53:38;31.60;40.50
19847;DHT22;10084;50.518;8.588;2022-08-19T12:56:04;31.50;40.40
19847;DHT22;10084;50.518;8.588;2022-08-19T12:58:30;31.30;40.40
19847;DHT22;10084;50.518;8.588;2022-08-19T13:00:56;31.20;40.50
19847;DHT22;10084;50.518;8.588;2022-08-19T13:03:22;31.00;40.60
19847;DHT22;10084;50.518;8.588;2022-08-19T13:05:52;30.90;40.70
19847;DHT22;10084;50.518;8.588;2022-08-19T13:08:18;30.80;40.80
19847;DHT22;10084;50.518;8.588;2022-08-19T13:10:44;30.80;40.90
19847;DHT22;10084;50.518;8.588;2022-08-19T13:13:10;31.00;41.00
19847;DHT22;10084;50.518;8.588;2022-08-19T13:15:38;31.10;40.90
19847;DHT22;10084;50.518;8.588;2022-08-19T13:18:06;31.30;40.80
19847;DHT22;10084;50.518;8.588;2022-08-19T13:20:32;31.50;41.40
19847;DHT22;10084;50.518;8.588;2022-08-19T13:22:58;31.60;40.50
19847;DHT22;10084;50.518;8.588;2022-08-19T13:25:24;31.60;40.30
19847;DHT22;10084;50.518;8.588;2022-08-19T13:27:50;31.60;40.20
19847;DHT22;10084;50.518;8.588;2022-08-19T13:30:18;31.60;40.00
19847;DHT22;10084;50.518;8.588;2022-08-19T13:33:04;31.50;40.00
19847;DHT22;10084;50.518;8.588;2022-08-19T13:35:50;31.40;39.90
19847;DHT22;10084;50.518;8.588;2022-08-19T13:38:19;31.20;39.90
19847;DHT22;10084;50.518;8.588;2022-08-19T13:40:46;31.10;39.90
19847;DHT22;10084;50.518;8.588;2022-08-19T13:43:12;31.00;40.00
19847;DHT22;10084;50.518;8.588;2022-08-19T13:45:39;30.80;40.20
19847;DHT22;10084;50.518;8.588;2022-08-19T13:48:07;30.70;40.10
19847;DHT22;10084;50.518;8.588;2022-08-19T13:50:40;30.60;40.10
19847;DHT22;10084;50.518;8.588;2022-08-19T13:53:08;30.40;40.10
19847;DHT22;10084;50.518;8.588;2022-08-19T13:55:34;30.30;40.10
19847;DHT22;10084;50.518;8.588;2022-08-19T13:58:02;30.20;40.20
19847;DHT22;10084;50.518;8.588;2022-08-19T14:00:31;30.10;40.30
19847;DHT22;10084;50.518;8.588;2022-08-19T14:02:57;30.00;40.30
19847;DHT22;10084;50.518;8.588;2022-08-19T14:05:25;29.90;40.30
19847;DHT22;10084;50.518;8.588;2022-08-19T14:07:51;29.90;40.30
19847;DHT22;10084;50.518;8.588;2022-08-19T14:10:17;29.90;40.40
19847;DHT22;10084;50.518;8.588;2022-08-19T14:12:44;29.90;40.40
19847;DHT22;10084;50.518;8.588;2022-08-19T14:15:11;29.90;40.40
19847;DHT22;10084;50.518;8.588;2022-08-19T14:17:42;29.90;40.30
19847;DHT22;10084;50.518;8.588;2022-08-19T14:20:09;30.00;40.30
19847;DHT22;10084;50.518;8.588;2022-08-19T14:22:37;30.10;40.30
19847;DHT22;10084;50.518;8.588;2022-08-19T14:25:05;30.10;40.20
19847;DHT22;10084;50.518;8.588;2022-08-19T14:27:33;30.20;40.20
19847;DHT22;10084;50.518;8.588;2022-08-19T14:29:59;30.30;40.10
19847;DHT22;10084;50.518;8.588;2022-08-19T14:32:25;30.30;40.10
19847;DHT22;10084;50.518;8.588;2022-08-19T14:34:53;30.40;40.00
19847;DHT22;10084;50.518;8.588;2022-08-19T14:37:20;30.40;39.90
19847;DHT22;10084;50.518;8.588;2022-08-19T14:39:46;30.40;39.90
19847;DHT22;10084;50.518;8.588;2022-08-19T14:42:12;30.30;39.80
19847;DHT22;10084;50.518;8.588;2022-08-19T14:44:40;30.30;39.90
19847;DHT22;10084;50.518;8.588;2022-08-19T14:47:06;30.20;39.80
19847;DHT22;10084;50.518;8.588;2022-08-19T14:49:33;30.10;40.00
19847;DHT22;10084;50.518;8.588;2022-08-19T14:51:59;29.90;39.90
19847;DHT22;10084;50.518;8.588;2022-08-19T14:54:25;29.90;40.00
19847;DHT22;10084;50.518;8.588;2022-08-19T14:56:50;29.70;40.10
19847;DHT22;10084;50.518;8.588;2022-08-19T14:59:16;29.70;40.30
19847;DHT22;10084;50.518;8.588;2022-08-19T15:01:42;29.50;40.30
19847;DHT22;10084;50.518;8.588;2022-08-19T15:04:08;29.50;40.40
19847;DHT22;10084;50.518;8.588;2022-08-19T15:06:34;29.40;40.50
19847;DHT22;10084;50.518;8.588;2022-08-19T15:09:00;29.40;40.50
19847;DHT22;10084;50.518;8.588;2022-08-19T15:11:27;29.30;40.60
19847;DHT22;10084;50.518;8.588;2022-08-19T15:13:54;29.40;40.70
19847;DHT22;10084;50.518;8.588;2022-08-19T15:16:21;29.30;40.70
19847;DHT22;10084;50.518;8.588;2022-08-19T15:18:50;29.30;40.80
19847;DHT22;10084;50.518;8.588;2022-08-19T15:21:17;29.40;40.80
19847;DHT22;10084;50.518;8.588;2022-08-19T15:23:44;29.40;40.80
19847;DHT22;10084;50.518;8.588;2022-08-19T15:26:10;29.40;40.80
19847;DHT22;10084;50.518;8.588;2022-08-19T15:28:37;29.50;40.90
19847;DHT22;10084;50.518;8.588;2022-08-19T15:31:03;29.50;40.90
19847;DHT22;10084;50.518;8.588;2022-08-19T15:33:34;29.50;40.80
19847;DHT22;10084;50.518;8.588;2022-08-19T15:36:05;29.60;40.80
19847;DHT22;10084;50.518;8.588;2022-08-19T15:38:32;29.70;40.80
19847;DHT22;10084;50.518;8.588;2022-08-19T15:41:00;29.80;40.60
19847;DHT22;10084;50.518;8.588;2022-08-19T15:43:46;29.90;40.60
19847;DHT22;10084;50.518;8.588;2022-08-19T15:46:19;30.00;40.60
19847;DHT22;10084;50.518;8.588;2022-08-19T15:48:47;30.10;40.50
19847;DHT22;10084;50.518;8.588;2022-08-19T15:51:13;30.10;40.40